createdAt,value
2023-01-15T00:00:00.143Z,98677.25
2023-01-15T00:02:29.053Z,98666.06
2023-01-15T00:04:56.657Z,98669.47
2023-01-15T00:07:24.287Z,98666.03
2023-01-15T00:09:52.335Z,98660.84
2023-01-15T00:12:19.856Z,98671.16
2023-01-15T00:14:47.381Z,98657.38
2023-01-15T00:17:14.900Z,98664.25
2023-01-15T00:19:43.764Z,98653.06
2023-01-15T00:22:11.364Z,98628.97
2023-01-15T00:24:56.441Z,98634.97
2023-01-15T00:27:40.703Z,98621.19
2023-01-15T00:30:11.554Z,98625.53
2023-01-15T00:32:39.315Z,98627.25
2023-01-15T00:35:12.579Z,98650.50
2023-01-15T00:37:40.132Z,98619.53
2023-01-15T00:40:09.751Z,98627.28
2023-01-15T00:42:38.812Z,98578.31
2023-01-15T00:45:10.088Z,98597.25
2023-01-15T00:47:38.441Z,98567.09
2023-01-15T00:50:10.542Z,98561.91
2023-01-15T00:52:38.229Z,98574.00
2023-01-15T00:55:07.179Z,98571.38
2023-01-15T00:57:35.043Z,98583.41
2023-01-15T01:00:02.623Z,98578.22
2023-01-15T01:02:30.320Z,98576.47
2023-01-15T01:04:57.910Z,98568.72
2023-01-15T01:07:26.876Z,98574.75
2023-01-15T01:09:54.379Z,98554.13
2023-01-15T01:12:23.521Z,98565.31
2023-01-15T01:14:51.125Z,98570.50
2023-01-15T01:17:18.737Z,98573.94
2023-01-15T01:19:46.398Z,98588.59
2023-01-15T01:22:13.957Z,98573.97
2023-01-15T01:24:42.833Z,98576.56
2023-01-15T01:27:10.417Z,98564.53
2023-01-15T01:29:37.987Z,98562.84
2023-01-15T01:32:06.158Z,98564.56
2023-01-15T01:34:34.393Z,98536.16
2023-01-15T01:37:01.950Z,98544.75
2023-01-15T01:39:29.545Z,98535.28
2023-01-15T01:41:58.426Z,98546.44
2023-01-15T01:45:00.437Z,98557.63
2023-01-15T01:47:30.561Z,98536.09
2023-01-15T01:50:02.591Z,98560.16
2023-01-15T01:52:33.962Z,98550.69
2023-01-15T01:55:03.765Z,98573.06
2023-01-15T01:57:33.930Z,98561.84
2023-01-15T02:00:04.690Z,98558.44
2023-01-15T02:02:42.959Z,98549.00
2023-01-15T02:05:16.003Z,98554.19
2023-01-15T02:07:44.904Z,98550.78
2023-01-15T02:10:16.590Z,98531.03
2023-01-15T02:12:50.579Z,98520.78
2023-01-15T02:15:24.288Z,98538.84
2023-01-15T02:18:01.370Z,98516.53
2023-01-15T02:20:33.311Z,98498.47
2023-01-15T02:23:12.435Z,98508.84
2023-01-15T02:26:00.506Z,98478.72
2023-01-15T02:28:32.919Z,98484.72
2023-01-15T02:31:06.400Z,98487.28
2023-01-15T02:33:38.544Z,98492.41
2023-01-15T02:36:15.523Z,98502.72
2023-01-15T02:38:46.908Z,98488.06
2023-01-15T02:41:19.398Z,98492.34
2023-01-15T02:43:54.918Z,98479.47
2023-01-15T02:46:30.458Z,98471.75
2023-01-15T02:49:01.377Z,98466.59
2023-01-15T02:51:39.612Z,98452.78
2023-01-15T02:54:12.059Z,98454.53
2023-01-15T02:56:41.630Z,98437.28
2023-01-15T02:59:13.899Z,98465.63
2023-01-15T03:01:46.088Z,98440.66
2023-01-15T03:04:18.450Z,98439.72
2023-01-15T03:06:50.762Z,98448.25
2023-01-15T03:09:20.371Z,98438.72
2023-01-15T03:11:56.217Z,98414.53
2023-01-15T03:14:34.425Z,98440.25
2023-01-15T03:17:12.405Z,98453.94
2023-01-15T03:19:46.144Z,98432.34
2023-01-15T03:22:24.407Z,98452.09
2023-01-15T03:24:55.540Z,98442.56
2023-01-15T03:27:23.628Z,98455.44
2023-01-15T03:30:01.791Z,98458.81
2023-01-15T03:32:31.214Z,98432.19
2023-01-15T03:35:00.260Z,98448.59
2023-01-15T03:37:29.497Z,98427.09
2023-01-15T03:39:58.825Z,98502.88
2023-01-15T03:42:42.869Z,98481.34
2023-01-15T03:45:18.800Z,98462.44
2023-01-15T03:47:58.442Z,98465.88
2023-01-15T03:50:33.121Z,98478.00
2023-01-15T03:53:11.558Z,98454.06
2023-01-15T03:55:54.106Z,98478.09
2023-01-15T03:58:27.853Z,98470.38
2023-01-15T04:00:59.822Z,98514.34
2023-01-15T04:03:30.256Z,98511.00
2023-01-15T04:06:01.403Z,98521.56
2023-01-15T04:08:34.289Z,98527.81
2023-01-15T04:11:03.337Z,98547.63
2023-01-15T04:13:33.460Z,98554.53
2023-01-15T04:16:03.599Z,98568.28
2023-01-15T04:18:31.958Z,98576.00
2023-01-15T04:20:59.637Z,98560.50
2023-01-15T04:23:28.244Z,98583.59
2023-01-15T04:25:55.765Z,98585.25
2023-01-15T04:28:23.326Z,98587.75
2023-01-15T04:30:50.961Z,98592.03
2023-01-15T04:33:19.872Z,98593.69
2023-01-15T04:35:47.461Z,98601.38
2023-01-15T04:38:15.010Z,98603.88
2023-01-15T04:41:00.179Z,98598.72
2023-01-15T04:43:45.476Z,98600.44
2023-01-15T04:46:13.048Z,98615.78
2023-01-15T04:48:41.955Z,98624.34
2023-01-15T04:51:09.544Z,98625.16
2023-01-15T04:53:37.138Z,98624.22
2023-01-15T04:56:06.301Z,98648.16
2023-01-15T04:58:34.760Z,98656.63
2023-01-15T05:01:03.103Z,98646.28
2023-01-15T05:03:31.212Z,98661.63
2023-01-15T05:06:03.782Z,98670.09
2023-01-15T05:08:31.604Z,98686.25
2023-01-15T05:11:02.405Z,98697.31
2023-01-15T05:13:32.148Z,98700.63
2023-01-15T05:16:09.011Z,98712.59
2023-01-15T05:18:36.591Z,98695.50
2023-01-15T05:21:05.967Z,98698.84
2023-01-15T05:23:33.614Z,98699.72
2023-01-15T05:26:05.041Z,98692.91
2023-01-15T05:28:32.865Z,98702.28
2023-01-15T05:31:00.405Z,98702.25
2023-01-15T05:33:27.936Z,98723.59
2023-01-15T05:35:55.453Z,98720.13
2023-01-15T05:38:24.374Z,98726.22
2023-01-15T05:40:52.040Z,98736.34
2023-01-15T05:43:19.595Z,98735.44
2023-01-15T05:45:47.141Z,98739.56
2023-01-15T05:48:14.691Z,98724.19
2023-01-15T05:50:42.259Z,98737.06
2023-01-15T05:53:09.802Z,98744.63
2023-01-15T05:55:38.813Z,98763.09
2023-01-15T05:58:06.332Z,98767.84
2023-01-15T06:00:33.841Z,98754.94
2023-01-15T06:03:01.479Z,98750.59
2023-01-15T06:05:29.138Z,98752.31
2023-01-15T06:07:56.735Z,98762.41
2023-01-15T06:10:24.319Z,98765.81
2023-01-15T06:12:53.168Z,98775.09
2023-01-15T06:15:20.779Z,98780.13
2023-01-15T06:17:50.822Z,98791.13
2023-01-15T06:20:18.629Z,98782.44
2023-01-15T06:22:46.158Z,98798.66
2023-01-15T06:25:14.353Z,98806.31
2023-01-15T06:27:44.396Z,98806.31
2023-01-15T06:30:13.937Z,98808.81
2023-01-15T06:32:41.640Z,98824.16
2023-01-15T06:35:09.921Z,98818.94
2023-01-15T06:37:37.494Z,98829.78
2023-01-15T06:40:05.745Z,98828.19
2023-01-15T06:42:51.137Z,98835.88
2023-01-15T06:45:37.440Z,98844.25
2023-01-15T06:48:06.645Z,98851.06
2023-01-15T06:50:34.313Z,98859.63
2023-01-15T06:53:01.896Z,98865.63
2023-01-15T06:55:29.472Z,98880.06
2023-01-15T06:57:57.009Z,98886.03
2023-01-15T07:00:25.940Z,98884.13
2023-01-15T07:02:53.500Z,98885.00
2023-01-15T07:05:21.056Z,98882.63
2023-01-15T07:07:48.632Z,98890.94
2023-01-15T07:10:16.241Z,98883.72
2023-01-15T07:12:43.741Z,98877.94
2023-01-15T07:15:12.206Z,98883.88
2023-01-15T07:17:41.068Z,98878.59
2023-01-15T07:20:09.747Z,98908.97
2023-01-15T07:22:38.348Z,98904.97
2023-01-15T07:25:07.130Z,98886.31
2023-01-15T07:27:34.696Z,98912.56
2023-01-15T07:30:02.277Z,98913.63
2023-01-15T07:32:29.849Z,98901.16
2023-01-15T07:34:58.749Z,98878.59
2023-01-15T07:37:28.540Z,98904.06
2023-01-15T07:39:57.433Z,98924.38
2023-01-15T07:42:42.503Z,98922.88
2023-01-15T07:45:29.945Z,98962.22
2023-01-15T07:48:15.403Z,98970.38
2023-01-15T07:50:44.297Z,98966.75
2023-01-15T07:53:11.838Z,98969.28
2023-01-15T07:55:39.528Z,98981.81
2023-01-15T07:58:07.193Z,98996.06
2023-01-15T08:00:34.717Z,98986.75
2023-01-15T08:03:03.472Z,98987.69
2023-01-15T08:05:31.143Z,99002.81
2023-01-15T08:08:00.023Z,98991.72
2023-01-15T08:10:27.595Z,98998.47
2023-01-15T08:13:13.063Z,98997.53
2023-01-15T08:15:43.911Z,99000.06
2023-01-15T08:18:11.635Z,98997.69
2023-01-15T08:20:39.208Z,98998.19
2023-01-15T08:23:09.384Z,99011.03
2023-01-15T08:25:36.966Z,99028.06
2023-01-15T08:28:04.823Z,99036.31
2023-01-15T08:30:32.415Z,99033.72
2023-01-15T08:33:02.986Z,99032.16
2023-01-15T08:35:30.556Z,99027.03
2023-01-15T08:37:58.109Z,99049.06
2023-01-15T08:40:27.013Z,99059.19
2023-01-15T08:42:56.511Z,99042.22
2023-01-15T08:45:24.311Z,99053.94
2023-01-15T08:47:55.900Z,99052.25
2023-01-15T08:50:23.465Z,99045.41
2023-01-15T08:52:50.982Z,99077.81
2023-01-15T08:55:18.610Z,99055.91
2023-01-15T08:57:48.610Z,99076.47
2023-01-15T09:00:17.735Z,99069.53
2023-01-15T09:02:45.547Z,99099.31
2023-01-15T09:05:13.273Z,99085.53
2023-01-15T09:07:40.860Z,99088.78
2023-01-15T09:10:09.274Z,99094.09
2023-01-15T09:12:37.000Z,99082.16
2023-01-15T09:15:06.693Z,99092.81
2023-01-15T09:17:35.442Z,99104.94
2023-01-15T09:20:03.176Z,99115.88
2023-01-15T09:22:31.287Z,99121.06
2023-01-15T09:24:59.023Z,99136.47
2023-01-15T09:27:27.042Z,99149.06
2023-01-15T09:29:54.957Z,99143.06
2023-01-15T09:32:24.225Z,99141.53
2023-01-15T09:34:51.926Z,99140.53
2023-01-15T09:37:19.520Z,99159.34
2023-01-15T09:39:47.113Z,99169.16
2023-01-15T09:42:30.444Z,99167.59
2023-01-15T09:45:18.559Z,99175.13
2023-01-15T09:48:04.646Z,99170.00
2023-01-15T09:50:44.646Z,99181.97
2023-01-15T09:53:29.414Z,99202.41
2023-01-15T09:55:58.838Z,99191.91
2023-01-15T09:58:34.135Z,99200.25
2023-01-15T10:01:01.922Z,99204.19
2023-01-15T10:03:37.269Z,99202.50
2023-01-15T10:06:13.688Z,99210.00
2023-01-15T10:08:45.846Z,99212.56
2023-01-15T10:11:48.276Z,99223.59
2023-01-15T10:14:31.541Z,99212.44
2023-01-15T10:16:59.403Z,99231.84
2023-01-15T10:19:43.800Z,99239.56
2023-01-15T10:22:21.659Z,99232.97
2023-01-15T10:24:56.726Z,99254.69
2023-01-15T10:27:27.162Z,99242.47
2023-01-15T10:30:02.485Z,99266.94
2023-01-15T10:33:00.677Z,99258.28
2023-01-15T10:35:41.261Z,99246.34
2023-01-15T10:38:18.397Z,99261.72
2023-01-15T10:41:31.360Z,99260.22
2023-01-15T10:44:03.935Z,99250.13
2023-01-15T10:46:38.027Z,99255.66
2023-01-15T10:49:12.041Z,99267.72
2023-01-15T10:51:45.117Z,99266.63
2023-01-15T10:54:26.853Z,99269.97
2023-01-15T10:57:02.016Z,99277.44
2023-01-15T10:59:39.128Z,99268.06
2023-01-15T11:02:21.597Z,99286.00
2023-01-15T11:04:49.213Z,99285.91
2023-01-15T11:07:19.195Z,99258.53
2023-01-15T11:09:47.220Z,99287.34
2023-01-15T11:12:39.621Z,99264.72
2023-01-15T11:15:40.021Z,99260.34
2023-01-15T11:18:33.372Z,99287.34
2023-01-15T11:21:01.859Z,99273.13
2023-01-15T11:23:36.546Z,99256.84
2023-01-15T11:26:05.084Z,99265.31
2023-01-15T11:28:36.351Z,99268.81
2023-01-15T11:31:04.544Z,99250.78
2023-01-15T11:33:32.963Z,99263.44
2023-01-15T11:36:02.811Z,99238.28
2023-01-15T11:38:38.120Z,99253.72
2023-01-15T11:41:05.917Z,99248.91
2023-01-15T11:43:59.670Z,99251.25
2023-01-15T11:46:48.114Z,99265.16
2023-01-15T11:49:39.172Z,99281.28
2023-01-15T11:52:09.795Z,99257.59
2023-01-15T11:54:42.405Z,99257.59
2023-01-15T11:57:10.663Z,99276.19
2023-01-15T11:59:38.775Z,99257.84
2023-01-15T12:02:18.524Z,99262.72
2023-01-15T12:04:52.301Z,99268.25
2023-01-15T12:07:24.220Z,99271.16
2023-01-15T12:10:14.271Z,99269.63
2023-01-15T12:12:53.029Z,99272.38
2023-01-15T12:15:32.034Z,99273.25
2023-01-15T12:18:15.409Z,99272.38
2023-01-15T12:20:58.021Z,99264.09
2023-01-15T12:23:42.525Z,99259.22
2023-01-15T12:26:18.783Z,99249.94
2023-01-15T12:28:54.730Z,99243.31
2023-01-15T12:31:26.754Z,99240.84
2023-01-15T12:33:59.040Z,99237.94
2023-01-15T12:36:32.660Z,99251.03
2023-01-15T12:39:02.078Z,99253.41
2023-01-15T12:41:48.516Z,99255.47
2023-01-15T12:44:38.439Z,99265.53
2023-01-15T12:47:10.978Z,99262.31
2023-01-15T12:49:45.824Z,99263.09
2023-01-15T12:52:20.816Z,99260.34
2023-01-15T12:54:52.643Z,99265.88
2023-01-15T12:57:32.023Z,99245.63
2023-01-15T13:00:07.359Z,99270.25
2023-01-15T13:02:41.512Z,99251.78
2023-01-15T13:05:18.893Z,99252.44
2023-01-15T13:07:52.284Z,99249.41
2023-01-15T13:10:21.133Z,99249.16
2023-01-15T13:12:50.542Z,99266.47
2023-01-15T13:15:21.313Z,99261.25
2023-01-15T13:18:00.756Z,99271.13
2023-01-15T13:20:45.029Z,99256.09
2023-01-15T13:23:31.590Z,99270.84
2023-01-15T13:26:12.513Z,99268.91
2023-01-15T13:28:53.997Z,99265.50
2023-01-15T13:31:42.003Z,99272.72
2023-01-15T13:34:19.426Z,99260.81
2023-01-15T13:36:49.152Z,99277.09
2023-01-15T13:39:19.862Z,99279.84
2023-01-15T13:42:08.892Z,99283.56
2023-01-15T13:44:46.083Z,99305.94
2023-01-15T13:47:19.167Z,99319.00
2023-01-15T13:49:51.175Z,99292.78
2023-01-15T13:52:25.234Z,99314.06
2023-01-15T13:54:54.130Z,99326.34
2023-01-15T13:57:24.909Z,99318.72
2023-01-15T13:59:53.943Z,99338.78
2023-01-15T14:02:26.596Z,99328.31
2023-01-15T14:04:54.326Z,99326.91
2023-01-15T14:07:31.258Z,99335.97
2023-01-15T14:10:09.531Z,99328.84
2023-01-15T14:12:46.144Z,99333.22
2023-01-15T14:15:33.424Z,99318.09
2023-01-15T14:18:17.511Z,99310.56
2023-01-15T14:21:12.164Z,99321.34
2023-01-15T14:23:55.136Z,99321.69
2023-01-15T14:26:32.794Z,99337.59
2023-01-15T14:29:07.048Z,99337.81
2023-01-15T14:31:44.077Z,99354.06
2023-01-15T14:34:16.623Z,99352.06
2023-01-15T14:36:54.073Z,99341.81
2023-01-15T14:39:33.284Z,99364.00
2023-01-15T14:42:25.942Z,99359.19
2023-01-15T14:45:02.768Z,99352.34
2023-01-15T14:47:36.933Z,99363.72
2023-01-15T14:50:31.086Z,99358.59
2023-01-15T14:53:04.590Z,99370.41
2023-01-15T14:55:32.795Z,99351.94
2023-01-15T14:58:04.318Z,99363.13
2023-01-15T15:00:36.982Z,99352.44
2023-01-15T15:03:17.228Z,99348.69
2023-01-15T15:05:47.468Z,99334.78
2023-01-15T15:08:19.234Z,99342.06
2023-01-15T15:10:51.753Z,99337.31
2023-01-15T15:13:29.164Z,99324.84
2023-01-15T15:16:06.692Z,99328.97
2023-01-15T15:18:40.346Z,99328.28
2023-01-15T15:21:12.680Z,99340.88
2023-01-15T15:23:46.882Z,99349.31
2023-01-15T15:26:22.805Z,99335.66
2023-01-15T15:28:57.883Z,99324.84
2023-01-15T15:31:28.313Z,99319.75
2023-01-15T15:33:58.336Z,99320.59
2023-01-15T15:36:30.265Z,99319.06
2023-01-15T15:39:00.277Z,99313.91
2023-01-15T15:41:49.714Z,99308.81
2023-01-15T15:44:41.036Z,99307.06
2023-01-15T15:47:36.916Z,99309.75
2023-01-15T15:50:06.580Z,99303.00
2023-01-15T15:52:35.485Z,99313.22
2023-01-15T15:55:05.869Z,99306.47
2023-01-15T15:57:35.808Z,99309.91
2023-01-15T16:00:03.769Z,99308.97
2023-01-15T16:02:36.418Z,99308.94
2023-01-15T16:05:21.221Z,99308.03
2023-01-15T16:07:48.941Z,99282.47
2023-01-15T16:10:20.541Z,99304.66
2023-01-15T16:12:51.760Z,99291.91
2023-01-15T16:15:23.245Z,99301.25
2023-01-15T16:17:51.985Z,99291.03
2023-01-15T16:20:21.933Z,99301.25
2023-01-15T16:22:54.933Z,99299.69
2023-01-15T16:25:25.030Z,99295.34
2023-01-15T16:27:53.232Z,99279.13
2023-01-15T16:30:22.048Z,99298.81
2023-01-15T16:32:51.156Z,99289.47
2023-01-15T16:35:22.946Z,99289.44
2023-01-15T16:37:52.145Z,99280.91
2023-01-15T16:40:28.068Z,99274.81
2023-01-15T16:43:06.732Z,99279.13
2023-01-15T16:45:37.721Z,99270.59
2023-01-15T16:48:25.642Z,99278.25
2023-01-15T16:50:54.544Z,99276.53
2023-01-15T16:53:41.110Z,99273.22
2023-01-15T16:56:26.168Z,99279.06
2023-01-15T16:58:53.821Z,99272.28
2023-01-15T17:01:35.654Z,99285.03
2023-01-15T17:04:04.659Z,99280.69
2023-01-15T17:06:33.741Z,99278.97
2023-01-15T17:09:01.475Z,99268.84
2023-01-15T17:11:33.267Z,99276.41
2023-01-15T17:14:12.211Z,99268.75
2023-01-15T17:16:39.804Z,99275.66
2023-01-15T17:19:08.744Z,99270.75
2023-01-15T17:21:38.971Z,99261.31
2023-01-15T17:24:07.962Z,99280.78
2023-01-15T17:26:35.886Z,99274.78
2023-01-15T17:29:03.505Z,99268.84
2023-01-15T17:31:33.616Z,99263.03
2023-01-15T17:34:02.759Z,99263.88
2023-01-15T17:36:31.286Z,99262.94
2023-01-15T17:39:00.369Z,99244.97
2023-01-15T17:41:27.977Z,99253.56
2023-01-15T17:43:55.506Z,99258.88
2023-01-15T17:46:24.115Z,99252.09
2023-01-15T17:48:51.654Z,99252.00
2023-01-15T17:51:19.385Z,99249.50
2023-01-15T17:53:46.908Z,99257.91
2023-01-15T17:56:33.428Z,99242.53
2023-01-15T17:59:18.755Z,99252.00
2023-01-15T18:02:06.689Z,99257.22
2023-01-15T18:04:56.468Z,99242.63
2023-01-15T18:07:27.243Z,99246.97
2023-01-15T18:09:56.235Z,99223.94
2023-01-15T18:12:25.124Z,99228.97
2023-01-15T18:14:52.679Z,99226.25
2023-01-15T18:17:20.332Z,99229.53
2023-01-15T18:19:48.076Z,99214.03
2023-01-15T18:22:15.956Z,99219.13
2023-01-15T18:24:43.827Z,99213.19
2023-01-15T18:27:11.407Z,99220.69
2023-01-15T18:29:40.389Z,99210.41
2023-01-15T18:32:09.047Z,99201.91
2023-01-15T18:34:36.904Z,99206.91
2023-01-15T18:37:04.977Z,99213.97
2023-01-15T18:39:32.614Z,99204.75
2023-01-15T18:42:17.655Z,99206.59
2023-01-15T18:45:04.400Z,99181.59
2023-01-15T18:47:32.177Z,99194.28
2023-01-15T18:49:59.873Z,99189.75
2023-01-15T18:52:45.150Z,99191.50
2023-01-15T18:55:12.778Z,99185.47
2023-01-15T18:57:40.411Z,99190.44
2023-01-15T19:00:11.718Z,99176.06
2023-01-15T19:02:39.526Z,99178.66
2023-01-15T19:05:08.012Z,99161.56
2023-01-15T19:07:35.641Z,99155.59
2023-01-15T19:10:03.236Z,99144.53
2023-01-15T19:12:30.813Z,99156.34
2023-01-15T19:15:16.100Z,99136.72
2023-01-15T19:18:02.825Z,99140.09
2023-01-15T19:20:30.676Z,99146.13
2023-01-15T19:23:04.943Z,99137.44
2023-01-15T19:25:37.443Z,99139.97
2023-01-15T19:28:06.475Z,99131.44
2023-01-15T19:30:35.275Z,99137.59
2023-01-15T19:33:05.003Z,99152.38
2023-01-15T19:35:33.020Z,99128.63
2023-01-15T19:38:02.217Z,99132.72
2023-01-15T19:40:31.633Z,99136.81
2023-01-15T19:43:17.102Z,99133.31
2023-01-15T19:46:03.917Z,99133.28
2023-01-15T19:48:52.135Z,99117.00
2023-01-15T19:51:19.905Z,99125.44
2023-01-15T19:53:47.587Z,99107.53
2023-01-15T19:56:15.181Z,99113.63
2023-01-15T19:58:42.958Z,99100.06
2023-01-15T20:01:15.417Z,99108.59
2023-01-15T20:03:46.084Z,99112.72
2023-01-15T20:06:13.756Z,99101.78
2023-01-15T20:08:41.387Z,99096.66
2023-01-15T20:11:09.963Z,99102.66
2023-01-15T20:13:53.232Z,99092.38
2023-01-15T20:16:25.205Z,99092.41
2023-01-15T20:18:55.559Z,99084.69
2023-01-15T20:21:23.202Z,99093.91
2023-01-15T20:23:50.750Z,99079.47
2023-01-15T20:26:18.504Z,99069.28
2023-01-15T20:28:47.558Z,99065.13
2023-01-15T20:31:17.413Z,99066.69
2023-01-15T20:33:45.157Z,99049.72
2023-01-15T20:36:14.572Z,99054.59
2023-01-15T20:38:42.288Z,99051.09
2023-01-15T20:41:28.592Z,99048.59
2023-01-15T20:44:14.066Z,99032.47
2023-01-15T20:46:41.673Z,99029.91
2023-01-15T20:49:24.971Z,99034.03
2023-01-15T20:51:54.715Z,99034.78
2023-01-15T20:54:23.290Z,99023.66
2023-01-15T20:56:50.934Z,99020.97
2023-01-15T20:59:18.631Z,99031.19
2023-01-15T21:01:58.428Z,99021.94
2023-01-15T21:04:29.967Z,99015.16
2023-01-15T21:06:59.005Z,99016.81
2023-01-15T21:09:26.813Z,99020.03
2023-01-15T21:11:54.430Z,99027.59
2023-01-15T21:14:22.131Z,99028.53
2023-01-15T21:16:51.157Z,99013.19
2023-01-15T21:19:18.998Z,99013.19
2023-01-15T21:21:46.584Z,99002.09
2023-01-15T21:24:15.551Z,99005.53
2023-01-15T21:26:45.587Z,98988.47
2023-01-15T21:29:13.538Z,98980.78
2023-01-15T21:31:41.571Z,98973.81
2023-01-15T21:34:09.534Z,98980.53
2023-01-15T21:36:37.733Z,98982.97
2023-01-15T21:39:05.732Z,98966.66
2023-01-15T21:41:52.206Z,98984.50
2023-01-15T21:44:34.733Z,98973.44
2023-01-15T21:47:04.517Z,98958.13
2023-01-15T21:49:33.390Z,98956.41
2023-01-15T21:52:01.186Z,98950.47
2023-01-15T21:54:29.232Z,98947.13
2023-01-15T21:56:58.790Z,98944.63
2023-01-15T21:59:27.043Z,98947.19
2023-01-15T22:01:55.543Z,98954.84
2023-01-15T22:04:25.273Z,98928.59
2023-01-15T22:06:53.623Z,98930.31
2023-01-15T22:09:21.881Z,98940.53
2023-01-15T22:11:50.078Z,98931.16
2023-01-15T22:14:23.524Z,98929.78
2023-01-15T22:16:53.651Z,98930.69
2023-01-15T22:19:22.717Z,98941.75
2023-01-15T22:21:51.440Z,98930.69
2023-01-15T22:24:20.093Z,98926.53
2023-01-15T22:26:53.690Z,98916.31
2023-01-15T22:29:23.672Z,98920.59
2023-01-15T22:31:52.109Z,98913.72
2023-01-15T22:34:21.257Z,98899.25
2023-01-15T22:36:49.036Z,98893.28
2023-01-15T22:39:17.192Z,98897.47
2023-01-15T22:42:02.878Z,98892.47
2023-01-15T22:44:32.654Z,98890.84
2023-01-15T22:47:01.012Z,98882.38
2023-01-15T22:49:28.934Z,98884.06
2023-01-15T22:51:56.561Z,98877.28
2023-01-15T22:54:24.392Z,98874.84
2023-01-15T22:56:51.918Z,98879.94
2023-01-15T22:59:19.995Z,98867.22
2023-01-15T23:01:49.067Z,98862.97
2023-01-15T23:04:18.793Z,98869.84
2023-01-15T23:06:47.247Z,98862.25
2023-01-15T23:09:14.951Z,98852.06
2023-01-15T23:11:42.773Z,98859.00
2023-01-15T23:14:13.029Z,98841.19
2023-01-15T23:16:40.542Z,98846.22
2023-01-15T23:19:09.429Z,98838.63
2023-01-15T23:21:37.030Z,98835.34
2023-01-15T23:24:05.165Z,98834.56
2023-01-15T23:26:34.680Z,98822.78
2023-01-15T23:29:02.407Z,98826.13
2023-01-15T23:31:30.559Z,98842.41
2023-01-15T23:33:58.168Z,98806.59
2023-01-15T23:36:27.365Z,98803.94
2023-01-15T23:38:55.306Z,98801.28
2023-01-15T23:41:44.665Z,98824.25
2023-01-15T23:44:35.160Z,98791.00
2023-01-15T23:47:02.785Z,98801.22
2023-01-15T23:49:30.474Z,98795.06
2023-01-15T23:51:59.528Z,98795.81
2023-01-15T23:54:28.883Z,98799.31
2023-01-15T23:56:56.503Z,98787.31
2023-01-15T23:59:24.621Z,98793.44
